createdAt,value
2016-12-07T00:00:20.644Z,0.1
2016-12-07T00:01:20.789Z,0.13
2016-12-07T00:02:20.734Z,0.1
2016-12-07T00:03:20.724Z,0.13
2016-12-07T00:04:20.858Z,0.13
2016-12-07T00:05:20.661Z,0.1
2016-12-07T00:06:20.734Z,0.08
2016-12-07T00:07:20.652Z,0.1
2016-12-07T00:08:20.751Z,0.13
2016-12-07T00:09:20.725Z,0.19
2016-12-07T00:10:20.823Z,0.02
2016-12-07T00:11:20.742Z,0.08
2016-12-07T00:12:20.835Z,0.14
2016-12-07T00:13:20.878Z,0.02
2016-12-07T00:14:20.680Z,-0.04
2016-12-07T00:15:20.763Z,0.14
2016-12-07T00:16:20.783Z,0.05
2016-12-07T00:17:20.870Z,0.03
2016-12-07T00:18:20.893Z,0.05
2016-12-07T00:19:20.765Z,0.06
2016-12-07T00:20:20.683Z,-0.04
2016-12-07T00:21:20.834Z,0.02
2016-12-07T00:22:20.772Z,0.03
2016-12-07T00:23:20.777Z,-0.12
2016-12-07T00:24:20.822Z,-0.02
2016-12-07T00:25:20.738Z,0.05
2016-12-07T00:26:20.715Z,-0.02
2016-12-07T00:27:20.883Z,-0.09
2016-12-07T00:28:20.942Z,0.05
2016-12-07T00:29:20.738Z,-0.02
2016-12-07T00:30:20.839Z,-0.04
2016-12-07T00:31:20.865Z,-0.07
2016-12-07T00:32:20.807Z,-0.25
2016-12-07T00:33:20.912Z,-0.13
2016-12-07T00:34:20.806Z,-0.04
2016-12-07T00:35:20.934Z,-0.09
2016-12-07T00:36:20.745Z,-0.02
2016-12-07T00:37:20.818Z,-0.09
2016-12-07T00:38:20.810Z,-0.07
2016-12-07T00:39:20.832Z,-0.16
2016-12-07T00:40:20.760Z,-0.07
2016-12-07T00:41:20.837Z,-0.15
2016-12-07T00:42:20.824Z,-0.05
2016-12-07T00:43:20.832Z,-0.01
2016-12-07T00:44:20.804Z,0.08
2016-12-07T00:45:20.949Z,0.02
2016-12-07T00:46:20.852Z,0.13
2016-12-07T00:47:20.849Z,-0.05
2016-12-07T00:48:20.847Z,-0.16
2016-12-07T00:49:20.778Z,-0.02
2016-12-07T00:50:20.867Z,-0.1
2016-12-07T00:51:20.859Z,-0.07
2016-12-07T00:52:20.799Z,-0.1
2016-12-07T00:53:20.856Z,-0.19
2016-12-07T00:54:20.975Z,-0.04
2016-12-07T00:55:20.938Z,-0.07
2016-12-07T00:56:20.859Z,-0.04
2016-12-07T00:57:20.874Z,-0.05
2016-12-07T00:58:20.865Z,-0.09
2016-12-07T00:59:20.893Z,-0.1
2016-12-07T01:00:20.945Z,-0.04
2016-12-07T01:01:21.077Z,-0.02
2016-12-07T01:02:20.995Z,-0.16
2016-12-07T01:03:20.897Z,0.06
2016-12-07T01:04:20.807Z,0.03
2016-12-07T01:05:20.902Z,-0.01
2016-12-07T01:06:21.020Z,-0.07
2016-12-07T01:07:20.896Z,-0.09
2016-12-07T01:08:20.831Z,-0.05
2016-12-07T01:09:20.848Z,0.24
2016-12-07T01:10:20.909Z,-0.13
2016-12-07T01:11:20.850Z,-0.02
2016-12-07T01:12:20.941Z,0.01
2016-12-07T01:13:20.919Z,-0.09
2016-12-07T01:14:20.855Z,-0.07
2016-12-07T01:15:20.846Z,0.02
2016-12-07T01:16:20.934Z,0.06
2016-12-07T01:17:20.953Z,-0.1
2016-12-07T01:18:20.935Z,-0.02
2016-12-07T01:19:20.994Z,-0.05
2016-12-07T01:20:21.014Z,0.05
2016-12-07T01:21:20.871Z,0.01
2016-12-07T01:22:21.023Z,0.06
2016-12-07T01:23:20.956Z,-0.07
2016-12-07T01:24:20.909Z,-0.05
2016-12-07T01:25:20.954Z,-0.04
2016-12-07T01:26:20.965Z,0.02
2016-12-07T01:27:20.971Z,-0.02
2016-12-07T01:28:20.905Z,-0.04
2016-12-07T01:29:20.949Z,-0.01
2016-12-07T01:30:20.955Z,0.01
2016-12-07T01:31:20.963Z,-0.04
2016-12-07T01:32:20.983Z,0.05
2016-12-07T01:33:21.169Z,0.08
2016-12-07T01:34:20.993Z,0.01
2016-12-07T01:35:21.044Z,0.05
2016-12-07T01:36:20.970Z,0.05
2016-12-07T01:37:21.057Z,0.06
2016-12-07T01:38:20.974Z,0.13
2016-12-07T01:39:21.072Z,0.09
2016-12-07T01:40:20.932Z,0.13
2016-12-07T01:41:21.015Z,0.14
2016-12-07T01:42:21.005Z,0.2
2016-12-07T01:43:20.941Z,0.17
2016-12-07T01:44:21.053Z,0.23
2016-12-07T01:45:21.085Z,0.09
2016-12-07T01:46:21.028Z,0.14
2016-12-07T01:47:21.009Z,0.16
2016-12-07T01:48:21.030Z,0.08
2016-12-07T01:49:21.149Z,0.17
2016-12-07T01:50:21.084Z,0.09
2016-12-07T01:51:21.108Z,0.1
2016-12-07T01:52:21.020Z,0.13
2016-12-07T01:53:20.948Z,0.19
2016-12-07T01:54:20.957Z,0.16
2016-12-07T01:55:21.103Z,0.24
2016-12-07T01:56:20.961Z,0.21
2016-12-07T01:57:21.023Z,0.24
2016-12-07T01:58:21.124Z,0.26
2016-12-07T01:59:21.125Z,0.24
2016-12-07T02:00:21.145Z,0.21
2016-12-07T02:01:21.063Z,0.34
2016-12-07T02:02:20.965Z,0.28
2016-12-07T02:03:21.066Z,0.28
2016-12-07T02:04:21.074Z,0.27
2016-12-07T02:05:21.164Z,0.19
2016-12-07T02:06:21.156Z,0.35
2016-12-07T02:07:20.990Z,0.27
2016-12-07T02:08:20.993Z,0.31
2016-12-07T02:09:21.009Z,0.28
2016-12-07T02:10:21.073Z,0.32
2016-12-07T02:11:20.996Z,0.35
2016-12-07T02:12:21.081Z,0.35
2016-12-07T02:13:21.011Z,0.39
2016-12-07T02:14:21.165Z,0.34
2016-12-07T02:15:21.089Z,0.27
2016-12-07T02:16:21.113Z,0.35
2016-12-07T02:17:21.183Z,0.26
2016-12-07T02:18:21.213Z,0.35
2016-12-07T02:19:21.022Z,0.38
2016-12-07T02:20:21.061Z,0.32
2016-12-07T02:21:21.058Z,0.41
2016-12-07T02:22:21.250Z,0.35
2016-12-07T02:23:21.030Z,0.38
2016-12-07T02:24:21.106Z,0.42
2016-12-07T02:25:21.102Z,0.45
2016-12-07T02:26:21.121Z,0.38
2016-12-07T02:27:21.125Z,0.44
2016-12-07T02:28:21.049Z,0.32
2016-12-07T02:29:21.130Z,0.38
2016-12-07T02:30:21.192Z,0.35
2016-12-07T02:31:21.204Z,0.35
2016-12-07T02:32:21.076Z,0.38
2016-12-07T02:33:21.066Z,0.38
2016-12-07T02:34:21.222Z,0.47
2016-12-07T02:35:21.139Z,0.42
2016-12-07T02:36:21.490Z,0.48
2016-12-07T02:37:21.102Z,0.39
2016-12-07T02:38:21.085Z,0.45
2016-12-07T02:39:21.221Z,0.44
2016-12-07T02:40:21.078Z,0.42
2016-12-07T02:41:21.148Z,0.53
2016-12-07T02:42:21.297Z,0.42
2016-12-07T02:43:21.164Z,0.56
2016-12-07T02:44:21.165Z,0.47
2016-12-07T02:45:21.281Z,0.44
2016-12-07T02:46:21.103Z,0.38
2016-12-07T02:47:21.139Z,0.42
2016-12-07T02:48:21.278Z,0.47
2016-12-07T02:49:21.177Z,0.48
2016-12-07T02:50:21.207Z,0.5
2016-12-07T02:51:21.201Z,0.58
2016-12-07T02:52:21.283Z,0.38
2016-12-07T02:53:21.293Z,0.45
2016-12-07T02:54:21.186Z,0.53
2016-12-07T02:55:21.186Z,0.5
2016-12-07T02:56:21.132Z,0.56
2016-12-07T02:57:21.206Z,0.41
2016-12-07T02:58:21.117Z,0.44
2016-12-07T02:59:21.268Z,0.38
2016-12-07T03:00:21.298Z,0.39
2016-12-07T03:01:21.205Z,0.47
2016-12-07T03:02:21.289Z,0.37
2016-12-07T03:03:21.331Z,0.44
2016-12-07T03:04:21.241Z,0.32
2016-12-07T03:05:21.228Z,0.34
2016-12-07T03:06:21.233Z,0.37
2016-12-07T03:07:21.241Z,0.41
2016-12-07T03:08:21.233Z,0.37
2016-12-07T03:09:21.341Z,0.34
2016-12-07T03:10:21.246Z,0.35
2016-12-07T03:11:21.257Z,0.44
2016-12-07T03:12:21.396Z,0.38
2016-12-07T03:13:21.239Z,0.44
2016-12-07T03:14:21.337Z,0.48
2016-12-07T03:15:21.253Z,0.44
2016-12-07T03:16:21.353Z,0.35
2016-12-07T03:17:21.349Z,0.42
2016-12-07T03:18:21.220Z,0.38
2016-12-07T03:19:21.282Z,0.53
2016-12-07T03:20:21.278Z,0.53
2016-12-07T03:21:21.288Z,0.42
2016-12-07T03:22:21.272Z,0.45
2016-12-07T03:23:21.399Z,0.41
2016-12-07T03:24:21.217Z,0.39
2016-12-07T03:25:21.314Z,0.39
2016-12-07T03:26:21.259Z,0.37
2016-12-07T03:27:21.209Z,0.35
2016-12-07T03:28:21.314Z,0.32
2016-12-07T03:29:21.303Z,0.35
2016-12-07T03:30:21.235Z,0.35
2016-12-07T03:31:21.365Z,0.23
2016-12-07T03:32:21.238Z,0.24
2016-12-07T03:33:21.429Z,0.27
2016-12-07T03:34:21.286Z,0.27
2016-12-07T03:35:21.323Z,0.26
2016-12-07T03:36:21.450Z,0.35
2016-12-07T03:37:21.406Z,0.17
2016-12-07T03:39:21.419Z,0.27
2016-12-07T03:40:21.342Z,0.28
2016-12-07T03:41:21.557Z,0.26
2016-12-07T03:42:21.736Z,0.24
2016-12-07T03:43:21.430Z,0.16
2016-12-07T03:44:21.551Z,0.2
2016-12-07T03:45:21.388Z,0.19
2016-12-07T03:46:21.509Z,0.08
2016-12-07T03:47:21.488Z,0.14
2016-12-07T03:48:21.390Z,0.17
2016-12-07T03:49:21.517Z,0.34
2016-12-07T03:50:21.387Z,0.08
2016-12-07T03:51:21.369Z,0.26
2016-12-07T03:52:21.378Z,0.16
2016-12-07T03:53:21.543Z,0.17
2016-12-07T03:54:21.378Z,0.26
2016-12-07T03:55:21.371Z,0.23
2016-12-07T03:56:21.370Z,0.28
2016-12-07T03:57:21.533Z,0.17
2016-12-07T03:58:21.393Z,0.26
2016-12-07T03:59:21.462Z,0.17
2016-12-07T04:00:21.480Z,0.21
2016-12-07T04:01:21.454Z,0.16
2016-12-07T04:02:21.479Z,0.21
2016-12-07T04:03:21.488Z,0.31
2016-12-07T04:04:21.393Z,0.16
2016-12-07T04:05:21.412Z,0.23
2016-12-07T04:06:21.405Z,0.16
2016-12-07T04:07:21.496Z,0.21
2016-12-07T04:08:21.425Z,0.09
2016-12-07T04:09:21.423Z,0.2
2016-12-07T04:10:21.523Z,0.21
2016-12-07T04:11:21.420Z,0.21
2016-12-07T04:12:21.433Z,0.24
2016-12-07T04:13:21.424Z,0.23
2016-12-07T04:14:21.436Z,0.31
2016-12-07T04:15:21.514Z,0.24
2016-12-07T04:16:21.358Z,0.2
2016-12-07T04:17:21.458Z,0.26
2016-12-07T04:18:21.371Z,0.34
2016-12-07T04:19:21.459Z,0.31
2016-12-07T04:20:21.384Z,0.27
2016-12-07T04:21:21.533Z,0.35
2016-12-07T04:22:21.445Z,0.32
2016-12-07T04:23:21.466Z,0.39
2016-12-07T04:24:21.481Z,0.38
2016-12-07T04:25:21.536Z,0.41
2016-12-07T04:26:21.380Z,0.39
2016-12-07T04:27:21.616Z,0.41
2016-12-07T04:28:21.387Z,0.44
2016-12-07T04:29:21.668Z,0.48
2016-12-07T04:30:21.466Z,0.45
2016-12-07T04:31:21.464Z,0.37
2016-12-07T04:32:21.586Z,0.38
2016-12-07T04:33:21.577Z,0.44
2016-12-07T04:34:21.481Z,0.53
2016-12-07T04:35:21.499Z,0.48
2016-12-07T04:36:21.428Z,0.56
2016-12-07T04:37:21.490Z,0.57
2016-12-07T04:38:21.580Z,0.57
2016-12-07T04:39:21.448Z,0.61
2016-12-07T04:40:21.447Z,0.5
2016-12-07T04:41:21.495Z,0.67
2016-12-07T04:42:21.503Z,0.6
2016-12-07T04:43:21.418Z,0.57
2016-12-07T04:44:21.513Z,0.58
2016-12-07T04:45:21.970Z,0.57
2016-12-07T04:46:21.438Z,0.58
2016-12-07T04:47:21.523Z,0.6
2016-12-07T04:48:21.605Z,0.56
2016-12-07T04:49:21.540Z,0.63
2016-12-07T04:50:21.451Z,0.58
2016-12-07T04:51:21.610Z,0.53
2016-12-07T04:52:21.461Z,0.52
2016-12-07T04:53:21.445Z,0.58
2016-12-07T04:54:21.478Z,0.53
2016-12-07T04:55:21.627Z,0.61
2016-12-07T04:56:21.572Z,0.58
2016-12-07T04:57:21.615Z,0.5
2016-12-07T04:58:21.545Z,0.48
2016-12-07T04:59:21.556Z,0.42
2016-12-07T05:00:21.470Z,0.47
2016-12-07T05:01:21.653Z,0.56
2016-12-07T05:02:21.555Z,0.56
2016-12-07T05:03:21.648Z,0.47
2016-12-07T05:04:21.499Z,0.52
2016-12-07T05:05:21.578Z,0.66
2016-12-07T05:06:21.531Z,0.71
2016-12-07T05:07:21.600Z,0.66
2016-12-07T05:08:21.686Z,0.72
2016-12-07T05:09:21.700Z,0.75
2016-12-07T05:10:21.685Z,0.66
2016-12-07T05:11:21.596Z,0.76
2016-12-07T05:12:21.720Z,0.71
2016-12-07T05:13:21.646Z,0.72
2016-12-07T05:14:21.606Z,0.74
2016-12-07T05:15:21.645Z,0.81
2016-12-07T05:16:21.765Z,0.82
2016-12-07T05:17:21.703Z,0.84
2016-12-07T05:18:21.576Z,0.85
2016-12-07T05:19:21.779Z,0.89
2016-12-07T05:20:21.686Z,0.84
2016-12-07T05:21:21.589Z,0.85
2016-12-07T05:22:21.663Z,0.79
2016-12-07T05:23:21.844Z,0.82
2016-12-07T05:24:21.616Z,0.93
2016-12-07T05:25:21.714Z,0.97
2016-12-07T05:26:21.616Z,0.97
2016-12-07T05:27:21.707Z,0.89
2016-12-07T05:28:21.551Z,0.86
2016-12-07T05:29:21.722Z,0.89
2016-12-07T05:30:21.625Z,0.92
2016-12-07T05:31:21.651Z,0.96
2016-12-07T05:32:21.632Z,0.99
2016-12-07T05:33:21.783Z,0.94
2016-12-07T05:34:21.645Z,0.89
2016-12-07T05:35:21.632Z,1.04
2016-12-07T05:36:21.895Z,0.97
2016-12-07T05:37:21.676Z,0.97
2016-12-07T05:38:21.650Z,0.96
2016-12-07T05:39:21.570Z,1.08
2016-12-07T05:40:21.651Z,1.08
2016-12-07T05:41:21.673Z,1.11
2016-12-07T05:42:21.663Z,1.08
2016-12-07T05:43:21.653Z,1.28
2016-12-07T05:44:21.779Z,1.14
2016-12-07T05:45:21.698Z,1.12
2016-12-07T05:46:21.746Z,1.2
2016-12-07T05:47:21.767Z,1.17
2016-12-07T05:48:21.687Z,1.14
2016-12-07T05:49:21.873Z,1.21
2016-12-07T05:50:21.726Z,1.14
2016-12-07T05:51:21.698Z,1.17
2016-12-07T05:52:21.617Z,1.17
2016-12-07T05:53:21.787Z,1.11
2016-12-07T05:54:21.640Z,1.12
2016-12-07T05:55:21.836Z,1.14
2016-12-07T05:56:21.643Z,1.17
2016-12-07T05:57:21.643Z,1.12
2016-12-07T05:58:21.782Z,1.17
2016-12-07T05:59:21.879Z,1.17
2016-12-07T06:00:21.738Z,1.22
2016-12-07T06:01:21.647Z,1.18
2016-12-07T06:02:21.637Z,1.14
2016-12-07T06:03:21.796Z,1.18
2016-12-07T06:04:21.742Z,1.24
2016-12-07T06:05:21.920Z,1.29
2016-12-07T06:06:21.809Z,1.26
2016-12-07T06:07:21.759Z,1.32
2016-12-07T06:08:21.786Z,1.36
2016-12-07T06:09:21.653Z,1.35
2016-12-07T06:10:21.756Z,1.42
2016-12-07T06:11:21.771Z,1.5
2016-12-07T06:12:21.735Z,1.39
2016-12-07T06:13:21.751Z,1.48
2016-12-07T06:14:21.679Z,1.53
2016-12-07T06:15:21.744Z,1.51
2016-12-07T06:16:21.846Z,1.47
2016-12-07T06:17:21.842Z,1.51
2016-12-07T06:18:21.907Z,1.54
2016-12-07T06:19:21.755Z,1.46
2016-12-07T06:20:21.845Z,1.54
2016-12-07T06:21:21.921Z,1.53
2016-12-07T06:22:21.849Z,1.53
2016-12-07T06:23:21.775Z,1.54
2016-12-07T06:24:21.702Z,1.47
2016-12-07T06:25:22.057Z,1.5
2016-12-07T06:26:21.833Z,1.44
2016-12-07T06:27:21.815Z,1.54
2016-12-07T06:28:21.786Z,1.51
2016-12-07T06:29:21.744Z,1.44
2016-12-07T06:30:21.844Z,1.48
2016-12-07T06:31:21.873Z,1.47
2016-12-07T06:32:21.827Z,1.48
2016-12-07T06:33:21.832Z,1.48
2016-12-07T06:34:21.804Z,1.51
2016-12-07T06:35:21.812Z,1.5
2016-12-07T06:36:21.768Z,1.46
2016-12-07T06:37:21.851Z,1.53
2016-12-07T06:38:21.897Z,1.51
2016-12-07T06:39:21.738Z,1.56
2016-12-07T06:40:21.840Z,1.5
2016-12-07T06:41:21.826Z,1.56
2016-12-07T06:42:21.959Z,1.47
2016-12-07T06:43:21.754Z,1.5
2016-12-07T06:44:21.826Z,1.51
2016-12-07T06:45:21.902Z,1.48
2016-12-07T06:46:21.923Z,1.4
2016-12-07T06:47:21.861Z,1.56
2016-12-07T06:48:22.023Z,1.51
2016-12-07T06:49:21.902Z,1.48
2016-12-07T06:50:21.781Z,1.44
2016-12-07T06:51:21.951Z,1.51
2016-12-07T06:52:21.898Z,1.48
2016-12-07T06:53:21.882Z,1.44
2016-12-07T06:54:21.875Z,1.4
2016-12-07T06:55:21.862Z,1.32
2016-12-07T06:56:22.183Z,1.39
2016-12-07T06:57:22.044Z,1.3
2016-12-07T06:58:21.886Z,1.48
2016-12-07T06:59:21.868Z,1.44
2016-12-07T07:00:21.933Z,1.44
2016-12-07T07:01:21.999Z,1.36
2016-12-07T07:02:21.868Z,1.35
2016-12-07T07:03:21.814Z,1.35
2016-12-07T07:04:21.911Z,1.3
2016-12-07T07:05:21.938Z,1.36
2016-12-07T07:06:21.873Z,1.33
2016-12-07T07:07:21.894Z,1.39
2016-12-07T07:08:21.888Z,1.42
2016-12-07T07:09:21.869Z,1.42
2016-12-07T07:10:21.821Z,1.46
2016-12-07T07:11:21.946Z,1.42
2016-12-07T07:12:22.026Z,1.46
2016-12-07T07:13:21.870Z,1.39
2016-12-07T07:14:22.010Z,1.36
2016-12-07T07:15:21.838Z,1.39
2016-12-07T07:16:21.936Z,1.44
2016-12-07T07:17:21.879Z,1.33
2016-12-07T07:18:22.034Z,1.42
2016-12-07T07:19:22.048Z,1.42
2016-12-07T07:20:22.082Z,1.44
2016-12-07T07:21:21.916Z,1.35
2016-12-07T07:22:21.919Z,1.44
2016-12-07T07:23:21.943Z,1.47
2016-12-07T07:24:22.009Z,1.5
2016-12-07T07:25:21.970Z,1.38
2016-12-07T07:26:21.888Z,1.48
2016-12-07T07:27:22.123Z,1.39
2016-12-07T07:28:22.045Z,1.48
2016-12-07T07:29:21.947Z,1.48
2016-12-07T07:30:21.943Z,1.42
2016-12-07T07:31:21.936Z,1.48
2016-12-07T07:32:21.939Z,1.47
2016-12-07T07:33:21.966Z,1.48
2016-12-07T07:34:22.020Z,1.44
2016-12-07T07:35:22.039Z,1.5
2016-12-07T07:36:21.906Z,1.6
2016-12-07T07:37:21.995Z,1.51
2016-12-07T07:38:21.939Z,1.6
2016-12-07T07:39:22.103Z,1.66
2016-12-07T07:40:21.884Z,1.66
2016-12-07T07:41:21.934Z,1.75
2016-12-07T07:42:22.077Z,1.68
2016-12-07T07:43:21.969Z,1.76
2016-12-07T07:44:22.016Z,1.74
2016-12-07T07:45:21.983Z,1.76
2016-12-07T07:46:22.077Z,1.74
2016-12-07T07:47:22.047Z,1.78
2016-12-07T07:48:22.112Z,1.84
2016-12-07T07:49:22.069Z,1.93
2016-12-07T07:50:22.046Z,1.89
2016-12-07T07:51:22.161Z,1.98
2016-12-07T07:52:22.061Z,1.87
2016-12-07T07:53:22.004Z,1.86
2016-12-07T07:54:22.083Z,1.87
2016-12-07T07:55:22.022Z,1.9
2016-12-07T07:56:22.073Z,1.97
2016-12-07T07:57:22.134Z,2.01
2016-12-07T07:58:22.444Z,1.92
2016-12-07T07:59:22.233Z,2.05
2016-12-07T08:00:22.057Z,2.02
2016-12-07T08:01:22.110Z,2.06
2016-12-07T08:02:21.989Z,2.15
2016-12-07T08:03:22.155Z,2.11
2016-12-07T08:04:22.048Z,2.23
2016-12-07T08:05:22.052Z,2.09
2016-12-07T08:06:22.044Z,2.26
2016-12-07T08:07:21.985Z,2.22
2016-12-07T08:08:22.146Z,2.18
2016-12-07T08:09:22.018Z,2.11
2016-12-07T08:10:22.034Z,2.22
2016-12-07T08:11:22.030Z,2.22
2016-12-07T08:12:22.130Z,2.08
2016-12-07T08:13:22.464Z,2.11
2016-12-07T08:14:21.983Z,2.06
2016-12-07T08:15:22.084Z,2.12
2016-12-07T08:16:22.138Z,2.11
2016-12-07T08:17:22.001Z,2.12
2016-12-07T08:18:22.087Z,2.23
2016-12-07T08:19:22.096Z,2.18
2016-12-07T08:20:22.313Z,2.16
2016-12-07T08:21:22.290Z,2.23
2016-12-07T08:22:22.168Z,2.22
2016-12-07T08:23:22.011Z,2.29
2016-12-07T08:24:22.107Z,2.27
2016-12-07T08:25:22.134Z,2.33
2016-12-07T08:26:22.164Z,2.38
2016-12-07T08:27:22.030Z,2.36
2016-12-07T08:28:22.367Z,2.48
2016-12-07T08:29:22.298Z,2.47
2016-12-07T08:30:22.157Z,2.49
2016-12-07T08:31:22.186Z,2.51
2016-12-07T08:32:22.023Z,2.58
2016-12-07T08:33:22.295Z,2.59
2016-12-07T08:34:22.114Z,2.63
2016-12-07T08:35:22.041Z,2.65
2016-12-07T08:36:22.121Z,2.67
2016-12-07T08:37:22.145Z,2.7
2016-12-07T08:38:22.213Z,2.78
2016-12-07T08:39:22.296Z,2.7
2016-12-07T08:40:22.093Z,2.84
2016-12-07T08:41:22.382Z,2.78
2016-12-07T08:42:22.267Z,2.85
2016-12-07T08:43:22.072Z,2.84
2016-12-07T08:44:22.269Z,2.87
2016-12-07T08:45:22.252Z,2.87
2016-12-07T08:46:23.456Z,2.88
2016-12-07T08:47:23.335Z,2.91
2016-12-07T08:48:22.762Z,2.96
2016-12-07T08:49:22.909Z,2.91
2016-12-07T08:50:28.715Z,3.16
2016-12-07T08:51:22.611Z,3.13
2016-12-07T08:52:22.188Z,3.11
2016-12-07T08:53:22.284Z,3.2
2016-12-07T08:54:22.422Z,3.26
2016-12-07T08:55:22.384Z,3.35
2016-12-07T08:56:22.350Z,3.27
2016-12-07T08:57:22.451Z,3.34
2016-12-07T08:58:22.445Z,3.46
2016-12-07T08:59:22.608Z,3.49
2016-12-07T09:00:22.355Z,3.61
2016-12-07T09:01:22.290Z,3.63
2016-12-07T09:02:22.204Z,3.61
2016-12-07T09:03:22.254Z,3.67
2016-12-07T09:04:22.309Z,3.72
2016-12-07T09:05:22.294Z,3.64
2016-12-07T09:06:22.188Z,3.58
2016-12-07T09:07:22.355Z,3.49
2016-12-07T09:08:22.374Z,3.64
2016-12-07T09:09:22.349Z,3.69
2016-12-07T09:10:22.332Z,3.53
2016-12-07T09:11:22.295Z,3.49
2016-12-07T09:12:22.333Z,3.37
2016-12-07T09:13:22.228Z,3.42
2016-12-07T09:14:22.264Z,3.4
2016-12-07T09:15:22.206Z,3.39
2016-12-07T09:16:22.300Z,3.4
2016-12-07T09:17:22.476Z,3.49
2016-12-07T09:18:22.264Z,3.54
2016-12-07T09:19:22.211Z,3.49
2016-12-07T09:20:22.615Z,3.6
2016-12-07T09:21:22.653Z,3.66
2016-12-07T09:22:22.408Z,3.6
2016-12-07T09:23:22.433Z,3.67
2016-12-07T09:24:22.326Z,3.64
2016-12-07T09:25:22.492Z,3.58
2016-12-07T09:26:22.469Z,3.67
2016-12-07T09:27:22.295Z,3.67
2016-12-07T09:28:22.294Z,3.75
2016-12-07T09:29:22.201Z,3.74
2016-12-07T09:30:22.573Z,3.75
2016-12-07T09:31:22.432Z,3.75
2016-12-07T09:32:22.476Z,3.66
2016-12-07T09:33:22.934Z,3.74
2016-12-07T09:34:22.389Z,3.76
2016-12-07T09:35:22.369Z,3.74
2016-12-07T09:36:22.390Z,3.71
2016-12-07T09:37:22.306Z,3.79
2016-12-07T09:38:22.423Z,3.78
2016-12-07T09:39:22.426Z,3.75
2016-12-07T09:40:22.292Z,3.75
2016-12-07T09:41:22.524Z,3.72
2016-12-07T09:42:22.470Z,3.81
2016-12-07T09:43:22.323Z,3.72
2016-12-07T09:44:23.327Z,3.76
2016-12-07T09:45:22.448Z,3.81
2016-12-07T09:46:22.524Z,3.86
2016-12-07T09:47:22.438Z,3.93
2016-12-07T09:48:22.448Z,3.85
2016-12-07T09:49:22.465Z,3.97
2016-12-07T09:50:22.351Z,4
2016-12-07T09:51:22.857Z,3.92
2016-12-07T09:52:22.996Z,4.04
2016-12-07T09:53:22.862Z,4.03
2016-12-07T09:54:22.587Z,4.07
2016-12-07T09:55:22.409Z,4.11
2016-12-07T09:56:22.298Z,4.12
2016-12-07T09:57:22.365Z,4.08
2016-12-07T09:58:22.391Z,4.12
2016-12-07T09:59:22.320Z,4.08
2016-12-07T10:00:22.383Z,3.97
2016-12-07T10:01:22.530Z,3.89
2016-12-07T10:02:22.561Z,3.93
2016-12-07T10:03:22.550Z,4
2016-12-07T10:04:22.390Z,4
2016-12-07T10:05:22.775Z,4.03
2016-12-07T10:06:22.632Z,4.2
2016-12-07T10:07:22.392Z,4.17
2016-12-07T10:08:22.399Z,4.11
2016-12-07T10:09:22.587Z,4.33
2016-12-07T10:10:22.391Z,4.3
2016-12-07T10:11:22.551Z,4.24
2016-12-07T10:12:22.399Z,4.33
2016-12-07T10:13:22.396Z,4.33
2016-12-07T10:14:22.587Z,4.32
2016-12-07T10:15:22.403Z,4.29
2016-12-07T10:16:22.444Z,4.38
2016-12-07T10:17:22.317Z,4.38
2016-12-07T10:18:22.431Z,4.44
2016-12-07T10:19:22.483Z,4.35
2016-12-07T10:20:22.506Z,4.32
2016-12-07T10:21:22.536Z,4.33
2016-12-07T10:22:22.496Z,4.35
2016-12-07T10:23:22.448Z,4.44
2016-12-07T10:24:22.567Z,4.46
2016-12-07T10:25:22.541Z,4.38
2016-12-07T10:26:22.437Z,4.42
2016-12-07T10:27:22.459Z,4.4
2016-12-07T10:28:22.558Z,4.33
2016-12-07T10:29:22.377Z,4.4
2016-12-07T10:30:22.392Z,4.39
2016-12-07T10:31:22.460Z,4.5
2016-12-07T10:32:22.701Z,4.46
2016-12-07T10:33:22.624Z,4.56
2016-12-07T10:34:22.465Z,4.54
2016-12-07T10:35:22.436Z,4.56
2016-12-07T10:36:22.468Z,4.61
2016-12-07T10:37:22.566Z,4.65
2016-12-07T10:38:22.442Z,4.61
2016-12-07T10:39:22.507Z,4.56
2016-12-07T10:40:22.487Z,4.68
2016-12-07T10:41:22.509Z,4.68
2016-12-07T10:42:22.407Z,4.74
2016-12-07T10:43:22.474Z,4.76
2016-12-07T10:44:22.408Z,4.79
2016-12-07T10:45:22.518Z,4.75
2016-12-07T10:46:22.567Z,4.75
2016-12-07T10:47:23.250Z,4.88
2016-12-07T10:48:23.300Z,4.95
2016-12-07T10:49:24.038Z,4.98
2016-12-07T10:50:23.404Z,5.03
2016-12-07T10:51:23.737Z,5.15
2016-12-07T10:52:22.625Z,5.18
2016-12-07T10:53:22.552Z,5.23
2016-12-07T10:54:22.677Z,5.37
2016-12-07T10:55:22.602Z,5.33
2016-12-07T10:56:22.758Z,5.39
2016-12-07T10:57:22.574Z,5.51
2016-12-07T10:58:22.658Z,5.54
2016-12-07T10:59:22.566Z,5.52
2016-12-07T11:00:22.644Z,5.55
2016-12-07T11:01:22.531Z,5.52
2016-12-07T11:02:22.468Z,5.67
2016-12-07T11:03:23.103Z,5.62
2016-12-07T11:04:22.774Z,5.64
2016-12-07T11:05:23.263Z,5.82
2016-12-07T11:06:23.198Z,5.77
2016-12-07T11:07:22.542Z,5.85
2016-12-07T11:08:22.716Z,5.77
2016-12-07T11:09:23.345Z,5.82
2016-12-07T11:10:22.580Z,5.89
2016-12-07T11:11:22.836Z,5.91
2016-12-07T11:12:22.738Z,5.99
2016-12-07T11:13:22.870Z,5.99
2016-12-07T11:14:23.504Z,5.98
2016-12-07T11:15:22.805Z,6.06
2016-12-07T11:16:22.656Z,6.05
2016-12-07T11:17:22.976Z,6.05
2016-12-07T11:18:22.625Z,6.13
2016-12-07T11:19:22.589Z,6.14
2016-12-07T11:20:22.710Z,6.2
2016-12-07T11:21:22.838Z,6.18
2016-12-07T11:22:22.724Z,6.18
2016-12-07T11:23:22.611Z,6.29
2016-12-07T11:24:22.584Z,6.29
2016-12-07T11:25:22.751Z,6.39
2016-12-07T11:26:22.743Z,6.51
2016-12-07T11:27:22.900Z,6.44
2016-12-07T11:28:22.634Z,6.55
2016-12-07T11:29:22.740Z,6.51
2016-12-07T11:30:23.452Z,6.54
2016-12-07T11:31:22.818Z,6.57
2016-12-07T11:32:22.690Z,6.58
2016-12-07T11:33:22.816Z,6.65
2016-12-07T11:34:22.933Z,6.62
2016-12-07T11:35:22.971Z,6.73
2016-12-07T11:36:22.907Z,6.79
2016-12-07T11:37:22.618Z,6.75
2016-12-07T11:38:22.738Z,6.83
2016-12-07T11:39:22.912Z,6.79
2016-12-07T11:40:22.609Z,6.91
2016-12-07T11:41:22.946Z,6.98
2016-12-07T11:42:22.672Z,7.01
2016-12-07T11:43:22.823Z,7.16
2016-12-07T11:44:22.661Z,7.18
2016-12-07T11:45:22.696Z,7.21
2016-12-07T11:46:22.723Z,7.26
2016-12-07T11:47:22.712Z,7.29
2016-12-07T11:48:22.842Z,7.22
2016-12-07T11:49:22.757Z,7.3
2016-12-07T11:50:22.701Z,7.23
2016-12-07T11:51:22.717Z,7.27
2016-12-07T11:52:22.642Z,7.33
2016-12-07T11:53:22.740Z,7.21
2016-12-07T11:54:22.804Z,7.29
2016-12-07T11:55:22.736Z,7.31
2016-12-07T11:56:22.788Z,7.21
2016-12-07T11:57:22.803Z,7.51
2016-12-07T11:58:22.843Z,7.27
2016-12-07T11:59:22.744Z,7.39
2016-12-07T12:00:22.749Z,7.41
2016-12-07T12:01:22.804Z,7.37
2016-12-07T12:02:22.686Z,7.39
2016-12-07T12:03:22.732Z,7.41
2016-12-07T12:04:22.723Z,7.48
2016-12-07T12:05:22.854Z,7.51
2016-12-07T12:06:22.814Z,7.55
2016-12-07T12:07:22.696Z,7.54
2016-12-07T12:08:22.651Z,7.56
2016-12-07T12:09:22.840Z,7.61
2016-12-07T12:10:22.704Z,7.54
2016-12-07T12:11:22.761Z,7.61
2016-12-07T12:12:22.740Z,7.44
2016-12-07T12:13:23.734Z,7.54
2016-12-07T12:14:22.811Z,7.58
2016-12-07T12:15:23.292Z,7.59
2016-12-07T12:16:22.811Z,7.64
2016-12-07T12:17:22.783Z,7.56
2016-12-07T12:18:22.886Z,7.63
2016-12-07T12:19:22.830Z,7.56
2016-12-07T12:20:22.707Z,7.71
2016-12-07T12:21:23.632Z,7.63
2016-12-07T12:22:22.763Z,7.73
2016-12-07T12:23:22.795Z,7.74
2016-12-07T12:24:22.785Z,7.74
2016-12-07T12:25:22.816Z,7.78
2016-12-07T12:26:22.898Z,7.82
2016-12-07T12:27:22.842Z,7.78
2016-12-07T12:28:22.836Z,7.82
2016-12-07T12:29:22.952Z,7.85
2016-12-07T12:30:22.843Z,7.88
2016-12-07T12:31:22.745Z,7.82
2016-12-07T12:32:23.030Z,7.85
2016-12-07T12:33:22.858Z,7.82
2016-12-07T12:34:23.264Z,7.8
2016-12-07T12:35:23.455Z,7.82
2016-12-07T12:36:23.293Z,7.82
2016-12-07T12:37:23.203Z,7.93
2016-12-07T12:38:22.960Z,7.82
2016-12-07T12:39:23.205Z,7.92
2016-12-07T12:40:22.773Z,7.85
2016-12-07T12:41:22.884Z,7.96
2016-12-07T12:42:23.096Z,7.85
2016-12-07T12:43:22.929Z,7.85
2016-12-07T12:44:22.818Z,7.85
2016-12-07T12:45:23.201Z,7.92
2016-12-07T12:46:23.136Z,7.88
2016-12-07T12:47:23.929Z,7.95
2016-12-07T12:48:22.990Z,7.96
2016-12-07T12:49:22.883Z,7.95
2016-12-07T12:50:22.802Z,8.03
2016-12-07T12:51:22.904Z,7.95
2016-12-07T12:52:22.768Z,7.95
2016-12-07T12:53:22.876Z,7.98
2016-12-07T12:54:22.958Z,8.01
2016-12-07T12:55:22.887Z,7.93
2016-12-07T12:56:23.026Z,8.03
2016-12-07T12:57:22.963Z,8.01
2016-12-07T12:58:22.790Z,8.01
2016-12-07T12:59:22.911Z,7.95
2016-12-07T13:00:22.885Z,8.04
2016-12-07T13:01:22.986Z,8.06
2016-12-07T13:02:23.045Z,7.98
2016-12-07T13:03:22.923Z,7.88
2016-12-07T13:04:22.996Z,7.91
2016-12-07T13:05:23.028Z,7.89
2016-12-07T13:06:22.811Z,7.99
2016-12-07T13:07:22.931Z,7.93
2016-12-07T13:08:23.209Z,7.95
2016-12-07T13:09:22.936Z,7.91
2016-12-07T13:10:22.924Z,7.85
2016-12-07T13:11:23.060Z,7.99
2016-12-07T13:12:22.986Z,7.98
2016-12-07T13:13:23.007Z,7.96
2016-12-07T13:14:23.011Z,8.01
2016-12-07T13:15:22.981Z,7.98
2016-12-07T13:16:22.912Z,7.93
2016-12-07T13:17:23.047Z,7.88
2016-12-07T13:18:22.959Z,7.95
2016-12-07T13:19:22.863Z,8.01